sensor_id;sensor_type;location;lat;lon;timestamp;P1;durP1;ratioP1;P2;durP2;ratioP2
72413;SDS011;60995;52.154;4.498;2023-07-28T00:02:08;14.85;;;7.00;;
72413;SDS011;60995;52.154;4.498;2023-07-28T00:04:25;21.27;;;7.45;;
72413;SDS011;60995;52.154;4.498;2023-07-28T00:06:41;20.55;;;7.45;;
72413;SDS011;60995;52.154;4.498;2023-07-28T00:08:57;23.25;;;6.97;;
72413;SDS011;60995;52.154;4.498;2023-07-28T00:11:14;25.35;;;8.32;;
72413;SDS011;60995;52.154;4.498;2023-07-28T00:13:31;19.40;;;7.75;;
72413;SDS011;60995;52.154;4.498;2023-07-28T00:15:48;20.40;;;7.32;;
72413;SDS011;60995;52.154;4.498;2023-07-28T00:18:04;19.05;;;7.18;;
72413;SDS011;60995;52.154;4.498;2023-07-28T00:20:20;20.45;;;7.45;;
72413;SDS011;60995;52.154;4.498;2023-07-28T00:22:36;20.23;;;8.00;;
72413;SDS011;60995;52.154;4.498;2023-07-28T00:24:53;25.40;;;8.68;;
72413;SDS011;60995;52.154;4.498;2023-07-28T00:27:09;24.85;;;8.13;;
72413;SDS011;60995;52.154;4.498;2023-07-28T00:29:25;21.30;;;7.65;;
72413;SDS011;60995;52.154;4.498;2023-07-28T00:31:42;22.05;;;7.78;;
72413;SDS011;60995;52.154;4.498;2023-07-28T00:33:58;23.63;;;7.50;;
72413;SDS011;60995;52.154;4.498;2023-07-28T00:36:15;20.23;;;7.95;;
72413;SDS011;60995;52.154;4.498;2023-07-28T00:38:31;32.55;;;9.90;;
72413;SDS011;60995;52.154;4.498;2023-07-28T00:40:48;26.35;;;10.02;;
72413;SDS011;60995;52.154;4.498;2023-07-28T00:43:04;22.27;;;8.63;;
72413;SDS011;60995;52.154;4.498;2023-07-28T00:45:20;17.08;;;8.75;;
72413;SDS011;60995;52.154;4.498;2023-07-28T00:47:37;32.15;;;9.85;;
72413;SDS011;60995;52.154;4.498;2023-07-28T00:49:54;24.15;;;10.02;;
72413;SDS011;60995;52.154;4.498;2023-07-28T00:52:10;25.80;;;10.48;;
72413;SDS011;60995;52.154;4.498;2023-07-28T00:54:26;24.63;;;9.32;;
72413;SDS011;60995;52.154;4.498;2023-07-28T00:56:43;27.58;;;10.40;;
72413;SDS011;60995;52.154;4.498;2023-07-28T00:58:59;30.45;;;9.98;;
72413;SDS011;60995;52.154;4.498;2023-07-28T01:01:15;24.42;;;9.73;;
72413;SDS011;60995;52.154;4.498;2023-07-28T01:03:32;28.13;;;9.90;;
72413;SDS011;60995;52.154;4.498;2023-07-28T01:11:03;33.13;;;9.43;;
72413;SDS011;60995;52.154;4.498;2023-07-28T01:13:20;24.85;;;10.15;;
72413;SDS011;60995;52.154;4.498;2023-07-28T01:15:36;24.17;;;10.20;;
72413;SDS011;60995;52.154;4.498;2023-07-28T01:17:52;29.45;;;10.65;;
72413;SDS011;60995;52.154;4.498;2023-07-28T01:20:09;28.20;;;10.07;;
72413;SDS011;60995;52.154;4.498;2023-07-28T01:28:05;28.00;;;10.10;;
72413;SDS011;60995;52.154;4.498;2023-07-28T01:30:22;23.85;;;9.48;;
72413;SDS011;60995;52.154;4.498;2023-07-28T01:32:41;26.35;;;10.25;;
72413;SDS011;60995;52.154;4.498;2023-07-28T01:34:58;27.92;;;10.30;;
72413;SDS011;60995;52.154;4.498;2023-07-28T01:37:14;31.58;;;10.40;;
72413;SDS011;60995;52.154;4.498;2023-07-28T01:39:30;30.05;;;11.10;;
72413;SDS011;60995;52.154;4.498;2023-07-28T01:41:46;31.95;;;9.63;;
72413;SDS011;60995;52.154;4.498;2023-07-28T01:44:03;26.10;;;10.07;;
72413;SDS011;60995;52.154;4.498;2023-07-28T01:46:19;26.75;;;10.07;;
72413;SDS011;60995;52.154;4.498;2023-07-28T01:48:35;21.58;;;10.35;;
72413;SDS011;60995;52.154;4.498;2023-07-28T01:50:52;29.55;;;10.15;;
72413;SDS011;60995;52.154;4.498;2023-07-28T01:53:08;23.08;;;9.48;;
72413;SDS011;60995;52.154;4.498;2023-07-28T01:55:24;28.63;;;9.68;;
72413;SDS011;60995;52.154;4.498;2023-07-28T01:57:49;22.45;;;10.10;;
72413;SDS011;60995;52.154;4.498;2023-07-28T02:00:10;24.52;;;10.00;;
72413;SDS011;60995;52.154;4.498;2023-07-28T02:02:27;28.70;;;10.18;;
72413;SDS011;60995;52.154;4.498;2023-07-28T02:04:43;30.85;;;11.13;;
72413;SDS011;60995;52.154;4.498;2023-07-28T02:06:59;30.70;;;10.70;;
72413;SDS011;60995;52.154;4.498;2023-07-28T02:09:16;32.55;;;10.32;;
72413;SDS011;60995;52.154;4.498;2023-07-28T02:11:33;24.67;;;9.48;;
72413;SDS011;60995;52.154;4.498;2023-07-28T02:13:49;26.95;;;9.63;;
72413;SDS011;60995;52.154;4.498;2023-07-28T02:16:06;26.30;;;9.77;;
72413;SDS011;60995;52.154;4.498;2023-07-28T02:18:22;31.38;;;10.40;;
72413;SDS011;60995;52.154;4.498;2023-07-28T02:20:38;32.00;;;9.70;;
72413;SDS011;60995;52.154;4.498;2023-07-28T02:22:55;32.67;;;9.70;;
72413;SDS011;60995;52.154;4.498;2023-07-28T02:25:12;25.83;;;10.00;;
72413;SDS011;60995;52.154;4.498;2023-07-28T02:27:28;25.13;;;9.30;;
72413;SDS011;60995;52.154;4.498;2023-07-28T02:29:44;30.13;;;9.85;;
72413;SDS011;60995;52.154;4.498;2023-07-28T02:32:01;35.70;;;10.25;;
72413;SDS011;60995;52.154;4.498;2023-07-28T02:34:18;24.95;;;9.93;;
72413;SDS011;60995;52.154;4.498;2023-07-28T02:36:34;31.33;;;10.00;;
72413;SDS011;60995;52.154;4.498;2023-07-28T02:38:50;27.67;;;10.00;;
72413;SDS011;60995;52.154;4.498;2023-07-28T02:41:06;32.22;;;10.73;;
72413;SDS011;60995;52.154;4.498;2023-07-28T02:43:23;31.40;;;10.68;;
72413;SDS011;60995;52.154;4.498;2023-07-28T02:45:39;29.08;;;10.88;;
72413;SDS011;60995;52.154;4.498;2023-07-28T02:47:55;21.45;;;9.70;;
72413;SDS011;60995;52.154;4.498;2023-07-28T02:50:11;22.92;;;9.32;;
72413;SDS011;60995;52.154;4.498;2023-07-28T02:52:28;26.67;;;10.00;;
72413;SDS011;60995;52.154;4.498;2023-07-28T02:54:44;24.15;;;10.10;;
72413;SDS011;60995;52.154;4.498;2023-07-28T02:57:00;29.00;;;10.82;;
72413;SDS011;60995;52.154;4.498;2023-07-28T02:59:17;29.80;;;13.55;;
72413;SDS011;60995;52.154;4.498;2023-07-28T03:01:33;32.58;;;12.35;;
72413;SDS011;60995;52.154;4.498;2023-07-28T03:03:50;35.58;;;12.68;;
72413;SDS011;60995;52.154;4.498;2023-07-28T03:06:07;34.78;;;13.52;;
72413;SDS011;60995;52.154;4.498;2023-07-28T03:08:23;33.50;;;12.90;;
72413;SDS011;60995;52.154;4.498;2023-07-28T03:10:39;31.63;;;12.55;;
72413;SDS011;60995;52.154;4.498;2023-07-28T03:12:55;35.88;;;14.30;;
72413;SDS011;60995;52.154;4.498;2023-07-28T03:15:12;35.17;;;13.82;;
72413;SDS011;60995;52.154;4.498;2023-07-28T03:17:28;34.00;;;13.60;;
72413;SDS011;60995;52.154;4.498;2023-07-28T03:19:44;46.75;;;14.98;;
72413;SDS011;60995;52.154;4.498;2023-07-28T03:22:00;38.13;;;14.82;;
72413;SDS011;60995;52.154;4.498;2023-07-28T03:24:17;37.13;;;14.23;;
72413;SDS011;60995;52.154;4.498;2023-07-28T03:26:33;38.65;;;14.73;;
72413;SDS011;60995;52.154;4.498;2023-07-28T03:28:49;38.40;;;14.73;;
72413;SDS011;60995;52.154;4.498;2023-07-28T03:31:05;38.45;;;15.30;;
72413;SDS011;60995;52.154;4.498;2023-07-28T03:33:22;42.90;;;16.17;;
72413;SDS011;60995;52.154;4.498;2023-07-28T03:35:38;45.63;;;15.40;;
72413;SDS011;60995;52.154;4.498;2023-07-28T03:37:54;39.15;;;14.75;;
72413;SDS011;60995;52.154;4.498;2023-07-28T03:40:10;43.00;;;14.73;;
72413;SDS011;60995;52.154;4.498;2023-07-28T03:42:27;37.13;;;14.13;;
72413;SDS011;60995;52.154;4.498;2023-07-28T03:44:43;40.33;;;14.35;;
72413;SDS011;60995;52.154;4.498;2023-07-28T03:47:00;32.13;;;13.43;;
72413;SDS011;60995;52.154;4.498;2023-07-28T03:49:16;38.13;;;13.35;;
72413;SDS011;60995;52.154;4.498;2023-07-28T03:51:32;36.10;;;14.57;;
72413;SDS011;60995;52.154;4.498;2023-07-28T03:53:48;33.58;;;13.20;;
72413;SDS011;60995;52.154;4.498;2023-07-28T03:56:05;35.85;;;13.98;;
72413;SDS011;60995;52.154;4.498;2023-07-28T03:58:21;29.40;;;13.43;;
72413;SDS011;60995;52.154;4.498;2023-07-28T04:00:37;37.20;;;14.05;;
72413;SDS011;60995;52.154;4.498;2023-07-28T04:02:54;40.30;;;15.30;;
72413;SDS011;60995;52.154;4.498;2023-07-28T04:05:10;36.20;;;13.90;;
72413;SDS011;60995;52.154;4.498;2023-07-28T04:07:26;39.47;;;15.13;;
72413;SDS011;60995;52.154;4.498;2023-07-28T04:09:42;32.25;;;13.43;;
72413;SDS011;60995;52.154;4.498;2023-07-28T04:11:59;37.95;;;13.63;;
72413;SDS011;60995;52.154;4.498;2023-07-28T04:14:15;36.03;;;13.38;;
72413;SDS011;60995;52.154;4.498;2023-07-28T04:16:31;37.92;;;14.13;;
72413;SDS011;60995;52.154;4.498;2023-07-28T04:18:48;37.72;;;13.38;;
72413;SDS011;60995;52.154;4.498;2023-07-28T04:21:04;40.65;;;14.10;;
72413;SDS011;60995;52.154;4.498;2023-07-28T04:23:21;38.28;;;14.73;;
72413;SDS011;60995;52.154;4.498;2023-07-28T04:25:37;36.78;;;14.68;;
72413;SDS011;60995;52.154;4.498;2023-07-28T04:27:54;41.97;;;14.45;;
72413;SDS011;60995;52.154;4.498;2023-07-28T04:30:11;34.78;;;14.75;;
72413;SDS011;60995;52.154;4.498;2023-07-28T04:32:28;39.72;;;15.13;;
72413;SDS011;60995;52.154;4.498;2023-07-28T04:34:44;36.85;;;14.27;;
72413;SDS011;60995;52.154;4.498;2023-07-28T04:37:00;41.20;;;13.75;;
72413;SDS011;60995;52.154;4.498;2023-07-28T04:39:17;32.30;;;14.10;;
72413;SDS011;60995;52.154;4.498;2023-07-28T04:41:33;33.35;;;13.25;;
72413;SDS011;60995;52.154;4.498;2023-07-28T04:43:49;36.17;;;15.30;;
72413;SDS011;60995;52.154;4.498;2023-07-28T04:46:06;40.10;;;14.80;;
72413;SDS011;60995;52.154;4.498;2023-07-28T04:48:22;33.38;;;14.02;;
72413;SDS011;60995;52.154;4.498;2023-07-28T04:50:38;49.85;;;16.13;;
72413;SDS011;60995;52.154;4.498;2023-07-28T04:52:55;39.95;;;14.75;;
72413;SDS011;60995;52.154;4.498;2023-07-28T04:55:11;41.38;;;14.65;;
72413;SDS011;60995;52.154;4.498;2023-07-28T04:57:27;37.85;;;14.40;;
72413;SDS011;60995;52.154;4.498;2023-07-28T04:59:45;41.60;;;15.63;;
72413;SDS011;60995;52.154;4.498;2023-07-28T05:02:01;38.72;;;14.73;;
72413;SDS011;60995;52.154;4.498;2023-07-28T05:04:17;45.05;;;15.07;;
72413;SDS011;60995;52.154;4.498;2023-07-28T05:06:35;35.88;;;14.25;;
72413;SDS011;60995;52.154;4.498;2023-07-28T05:08:51;36.65;;;15.20;;
72413;SDS011;60995;52.154;4.498;2023-07-28T05:11:07;39.40;;;14.13;;
72413;SDS011;60995;52.154;4.498;2023-07-28T05:13:23;48.03;;;14.80;;
72413;SDS011;60995;52.154;4.498;2023-07-28T05:15:40;34.63;;;13.85;;
72413;SDS011;60995;52.154;4.498;2023-07-28T05:17:56;32.80;;;13.73;;
72413;SDS011;60995;52.154;4.498;2023-07-28T05:20:12;34.03;;;14.07;;
72413;SDS011;60995;52.154;4.498;2023-07-28T05:22:28;32.05;;;13.85;;
72413;SDS011;60995;52.154;4.498;2023-07-28T05:24:45;35.05;;;14.00;;
72413;SDS011;60995;52.154;4.498;2023-07-28T05:27:01;31.50;;;13.35;;
72413;SDS011;60995;52.154;4.498;2023-07-28T05:29:17;40.72;;;14.00;;
72413;SDS011;60995;52.154;4.498;2023-07-28T05:31:34;33.30;;;13.93;;
72413;SDS011;60995;52.154;4.498;2023-07-28T05:33:50;34.35;;;14.45;;
72413;SDS011;60995;52.154;4.498;2023-07-28T05:36:09;34.42;;;14.50;;
72413;SDS011;60995;52.154;4.498;2023-07-28T05:38:25;32.45;;;14.27;;
72413;SDS011;60995;52.154;4.498;2023-07-28T05:40:42;29.60;;;13.35;;
72413;SDS011;60995;52.154;4.498;2023-07-28T05:42:58;33.15;;;12.75;;
72413;SDS011;60995;52.154;4.498;2023-07-28T05:45:14;35.05;;;13.18;;
72413;SDS011;60995;52.154;4.498;2023-07-28T05:47:30;33.75;;;13.38;;
72413;SDS011;60995;52.154;4.498;2023-07-28T05:49:47;27.63;;;12.60;;
72413;SDS011;60995;52.154;4.498;2023-07-28T05:52:03;32.42;;;13.35;;
72413;SDS011;60995;52.154;4.498;2023-07-28T05:54:20;35.03;;;13.05;;
72413;SDS011;60995;52.154;4.498;2023-07-28T05:56:36;33.20;;;12.00;;
72413;SDS011;60995;52.154;4.498;2023-07-28T05:58:52;32.55;;;12.75;;
72413;SDS011;60995;52.154;4.498;2023-07-28T06:01:09;30.90;;;12.38;;
72413;SDS011;60995;52.154;4.498;2023-07-28T06:03:25;31.88;;;12.57;;
72413;SDS011;60995;52.154;4.498;2023-07-28T06:05:42;24.63;;;11.63;;
72413;SDS011;60995;52.154;4.498;2023-07-28T06:07:58;29.75;;;12.95;;
72413;SDS011;60995;52.154;4.498;2023-07-28T06:10:14;29.48;;;11.85;;
72413;SDS011;60995;52.154;4.498;2023-07-28T06:12:31;29.35;;;11.95;;
72413;SDS011;60995;52.154;4.498;2023-07-28T06:14:47;29.70;;;12.18;;
72413;SDS011;60995;52.154;4.498;2023-07-28T06:17:03;29.70;;;12.43;;
72413;SDS011;60995;52.154;4.498;2023-07-28T06:19:20;36.15;;;12.75;;
72413;SDS011;60995;52.154;4.498;2023-07-28T06:21:39;32.70;;;12.27;;
72413;SDS011;60995;52.154;4.498;2023-07-28T06:23:55;28.98;;;11.82;;
72413;SDS011;60995;52.154;4.498;2023-07-28T06:26:12;27.27;;;11.77;;
72413;SDS011;60995;52.154;4.498;2023-07-28T06:28:28;28.77;;;12.25;;
72413;SDS011;60995;52.154;4.498;2023-07-28T06:30:44;30.83;;;12.20;;
72413;SDS011;60995;52.154;4.498;2023-07-28T06:33:00;29.30;;;11.85;;
72413;SDS011;60995;52.154;4.498;2023-07-28T06:35:18;27.05;;;11.90;;
72413;SDS011;60995;52.154;4.498;2023-07-28T06:37:36;23.90;;;11.02;;
72413;SDS011;60995;52.154;4.498;2023-07-28T06:39:53;26.98;;;11.73;;
72413;SDS011;60995;52.154;4.498;2023-07-28T06:42:11;28.20;;;11.35;;
72413;SDS011;60995;52.154;4.498;2023-07-28T06:44:27;27.67;;;11.88;;
72413;SDS011;60995;52.154;4.498;2023-07-28T06:46:44;26.05;;;11.50;;
72413;SDS011;60995;52.154;4.498;2023-07-28T06:49:00;33.95;;;11.88;;
72413;SDS011;60995;52.154;4.498;2023-07-28T06:51:16;27.77;;;11.15;;
72413;SDS011;60995;52.154;4.498;2023-07-28T06:53:33;26.45;;;10.55;;
72413;SDS011;60995;52.154;4.498;2023-07-28T06:55:50;29.10;;;10.65;;
72413;SDS011;60995;52.154;4.498;2023-07-28T06:58:06;23.25;;;10.32;;
72413;SDS011;60995;52.154;4.498;2023-07-28T07:00:22;28.27;;;10.15;;
72413;SDS011;60995;52.154;4.498;2023-07-28T07:02:39;20.92;;;9.43;;
72413;SDS011;60995;52.154;4.498;2023-07-28T07:04:55;19.55;;;9.40;;
72413;SDS011;60995;52.154;4.498;2023-07-28T07:07:11;19.15;;;9.52;;
72413;SDS011;60995;52.154;4.498;2023-07-28T07:09:27;22.60;;;9.50;;
72413;SDS011;60995;52.154;4.498;2023-07-28T07:11:44;20.17;;;9.48;;
72413;SDS011;60995;52.154;4.498;2023-07-28T07:14:00;20.02;;;9.23;;
72413;SDS011;60995;52.154;4.498;2023-07-28T07:16:16;22.67;;;9.50;;
72413;SDS011;60995;52.154;4.498;2023-07-28T07:18:33;17.98;;;8.32;;
72413;SDS011;60995;52.154;4.498;2023-07-28T07:20:49;17.88;;;7.65;;
72413;SDS011;60995;52.154;4.498;2023-07-28T07:23:06;20.50;;;8.55;;
72413;SDS011;60995;52.154;4.498;2023-07-28T07:25:22;16.63;;;7.35;;
72413;SDS011;60995;52.154;4.498;2023-07-28T07:27:38;16.90;;;7.57;;
72413;SDS011;60995;52.154;4.498;2023-07-28T07:29:55;18.27;;;7.22;;
72413;SDS011;60995;52.154;4.498;2023-07-28T07:32:11;15.82;;;6.80;;
72413;SDS011;60995;52.154;4.498;2023-07-28T07:34:27;17.20;;;6.97;;
72413;SDS011;60995;52.154;4.498;2023-07-28T07:36:44;19.08;;;6.60;;
72413;SDS011;60995;52.154;4.498;2023-07-28T07:39:01;15.07;;;6.95;;
72413;SDS011;60995;52.154;4.498;2023-07-28T07:41:17;15.75;;;6.55;;
72413;SDS011;60995;52.154;4.498;2023-07-28T07:43:36;11.57;;;5.75;;
72413;SDS011;60995;52.154;4.498;2023-07-28T07:45:53;12.70;;;5.40;;
72413;SDS011;60995;52.154;4.498;2023-07-28T07:48:10;14.38;;;5.75;;
72413;SDS011;60995;52.154;4.498;2023-07-28T07:50:26;13.10;;;5.35;;
72413;SDS011;60995;52.154;4.498;2023-07-28T07:52:42;9.73;;;4.82;;
72413;SDS011;60995;52.154;4.498;2023-07-28T07:54:59;18.08;;;5.68;;
72413;SDS011;60995;52.154;4.498;2023-07-28T07:57:15;16.10;;;5.43;;
72413;SDS011;60995;52.154;4.498;2023-07-28T07:59:31;9.40;;;5.13;;
72413;SDS011;60995;52.154;4.498;2023-07-28T08:01:48;10.38;;;4.25;;
72413;SDS011;60995;52.154;4.498;2023-07-28T08:04:04;10.98;;;4.40;;
72413;SDS011;60995;52.154;4.498;2023-07-28T08:06:21;10.63;;;4.60;;
72413;SDS011;60995;52.154;4.498;2023-07-28T08:08:38;11.30;;;4.30;;
72413;SDS011;60995;52.154;4.498;2023-07-28T08:10:54;10.93;;;4.57;;
72413;SDS011;60995;52.154;4.498;2023-07-28T08:13:11;12.73;;;4.95;;
72413;SDS011;60995;52.154;4.498;2023-07-28T08:15:27;11.10;;;4.20;;
72413;SDS011;60995;52.154;4.498;2023-07-28T08:17:44;10.80;;;4.50;;
72413;SDS011;60995;52.154;4.498;2023-07-28T08:20:01;8.43;;;3.92;;
72413;SDS011;60995;52.154;4.498;2023-07-28T08:22:17;10.40;;;3.83;;
72413;SDS011;60995;52.154;4.498;2023-07-28T08:24:34;12.73;;;4.03;;
72413;SDS011;60995;52.154;4.498;2023-07-28T08:26:50;10.25;;;3.63;;
72413;SDS011;60995;52.154;4.498;2023-07-28T08:29:06;8.43;;;4.03;;
72413;SDS011;60995;52.154;4.498;2023-07-28T08:31:22;11.10;;;3.90;;
72413;SDS011;60995;52.154;4.498;2023-07-28T08:33:39;10.30;;;3.92;;
72413;SDS011;60995;52.154;4.498;2023-07-28T08:35:55;13.90;;;4.00;;
72413;SDS011;60995;52.154;4.498;2023-07-28T08:38:11;9.80;;;4.10;;
72413;SDS011;60995;52.154;4.498;2023-07-28T08:40:28;9.57;;;4.15;;
72413;SDS011;60995;52.154;4.498;2023-07-28T08:42:44;11.15;;;3.90;;
72413;SDS011;60995;52.154;4.498;2023-07-28T08:45:02;10.43;;;3.60;;
72413;SDS011;60995;52.154;4.498;2023-07-28T08:47:20;10.73;;;3.38;;
72413;SDS011;60995;52.154;4.498;2023-07-28T08:49:37;8.70;;;3.78;;
72413;SDS011;60995;52.154;4.498;2023-07-28T08:51:57;8.20;;;3.20;;
72413;SDS011;60995;52.154;4.498;2023-07-28T08:54:15;7.90;;;3.63;;
72413;SDS011;60995;52.154;4.498;2023-07-28T08:56:32;8.63;;;3.70;;
72413;SDS011;60995;52.154;4.498;2023-07-28T08:58:48;7.68;;;3.30;;
72413;SDS011;60995;52.154;4.498;2023-07-28T09:01:06;10.23;;;3.78;;
72413;SDS011;60995;52.154;4.498;2023-07-28T09:03:22;9.85;;;3.72;;
72413;SDS011;60995;52.154;4.498;2023-07-28T09:05:43;9.82;;;4.00;;
72413;SDS011;60995;52.154;4.498;2023-07-28T09:08:02;9.82;;;3.70;;
72413;SDS011;60995;52.154;4.498;2023-07-28T09:10:18;8.73;;;3.55;;
72413;SDS011;60995;52.154;4.498;2023-07-28T09:12:34;10.95;;;4.05;;
72413;SDS011;60995;52.154;4.498;2023-07-28T09:15:05;8.73;;;4.10;;
72413;SDS011;60995;52.154;4.498;2023-07-28T09:17:22;10.95;;;3.80;;
72413;SDS011;60995;52.154;4.498;2023-07-28T09:19:51;13.07;;;4.38;;
72413;SDS011;60995;52.154;4.498;2023-07-28T09:22:09;13.20;;;4.40;;
72413;SDS011;60995;52.154;4.498;2023-07-28T09:24:30;10.88;;;5.07;;
72413;SDS011;60995;52.154;4.498;2023-07-28T09:26:48;10.80;;;4.32;;
72413;SDS011;60995;52.154;4.498;2023-07-28T09:29:16;10.68;;;4.82;;
72413;SDS011;60995;52.154;4.498;2023-07-28T09:31:34;13.48;;;4.82;;
72413;SDS011;60995;52.154;4.498;2023-07-28T09:33:51;10.75;;;4.75;;
72413;SDS011;60995;52.154;4.498;2023-07-28T09:36:08;15.35;;;5.55;;
72413;SDS011;60995;52.154;4.498;2023-07-28T09:38:27;15.80;;;5.53;;
72413;SDS011;60995;52.154;4.498;2023-07-28T09:40:45;15.13;;;5.50;;
72413;SDS011;60995;52.154;4.498;2023-07-28T09:43:01;12.70;;;5.38;;
72413;SDS011;60995;52.154;4.498;2023-07-28T09:45:18;12.68;;;5.30;;
72413;SDS011;60995;52.154;4.498;2023-07-28T09:47:34;16.08;;;5.47;;
72413;SDS011;60995;52.154;4.498;2023-07-28T09:49:52;15.20;;;5.78;;
72413;SDS011;60995;52.154;4.498;2023-07-28T09:52:14;13.57;;;5.15;;
72413;SDS011;60995;52.154;4.498;2023-07-28T09:54:38;11.93;;;5.18;;
72413;SDS011;60995;52.154;4.498;2023-07-28T09:56:57;13.13;;;4.93;;
72413;SDS011;60995;52.154;4.498;2023-07-28T09:59:13;17.15;;;5.70;;
72413;SDS011;60995;52.154;4.498;2023-07-28T10:01:33;12.18;;;5.30;;
72413;SDS011;60995;52.154;4.498;2023-07-28T10:03:50;13.68;;;5.55;;
72413;SDS011;60995;52.154;4.498;2023-07-28T10:06:07;10.90;;;5.07;;
72413;SDS011;60995;52.154;4.498;2023-07-28T10:08:24;16.38;;;5.43;;
72413;SDS011;60995;52.154;4.498;2023-07-28T10:10:41;13.73;;;4.93;;
72413;SDS011;60995;52.154;4.498;2023-07-28T10:12:57;14.52;;;5.22;;
72413;SDS011;60995;52.154;4.498;2023-07-28T10:15:16;15.57;;;4.65;;
72413;SDS011;60995;52.154;4.498;2023-07-28T10:17:47;10.30;;;4.43;;
72413;SDS011;60995;52.154;4.498;2023-07-28T10:20:29;12.68;;;4.57;;
72413;SDS011;60995;52.154;4.498;2023-07-28T10:22:51;12.77;;;4.80;;
72413;SDS011;60995;52.154;4.498;2023-07-28T10:25:07;12.25;;;4.40;;
72413;SDS011;60995;52.154;4.498;2023-07-28T10:27:34;12.13;;;4.53;;
72413;SDS011;60995;52.154;4.498;2023-07-28T10:29:57;12.20;;;4.97;;
72413;SDS011;60995;52.154;4.498;2023-07-28T10:32:25;10.20;;;4.72;;
72413;SDS011;60995;52.154;4.498;2023-07-28T10:34:48;14.02;;;4.82;;
72413;SDS011;60995;52.154;4.498;2023-07-28T10:37:22;10.43;;;3.92;;
72413;SDS011;60995;52.154;4.498;2023-07-28T10:39:39;10.20;;;3.72;;
72413;SDS011;60995;52.154;4.498;2023-07-28T10:42:09;12.88;;;3.88;;
72413;SDS011;60995;52.154;4.498;2023-07-28T10:44:26;13.48;;;4.38;;
72413;SDS011;60995;52.154;4.498;2023-07-28T10:46:43;10.05;;;4.10;;
72413;SDS011;60995;52.154;4.498;2023-07-28T10:49:03;9.73;;;3.50;;
72413;SDS011;60995;52.154;4.498;2023-07-28T10:51:22;10.67;;;3.67;;
72413;SDS011;60995;52.154;4.498;2023-07-28T10:53:42;9.73;;;3.53;;
72413;SDS011;60995;52.154;4.498;2023-07-28T10:56:00;11.80;;;3.60;;
72413;SDS011;60995;52.154;4.498;2023-07-28T10:58:19;9.38;;;3.38;;
72413;SDS011;60995;52.154;4.498;2023-07-28T11:00:36;13.30;;;4.20;;
72413;SDS011;60995;52.154;4.498;2023-07-28T11:02:52;7.90;;;3.42;;
72413;SDS011;60995;52.154;4.498;2023-07-28T11:05:13;11.55;;;3.50;;
72413;SDS011;60995;52.154;4.498;2023-07-28T11:07:40;10.68;;;4.07;;
72413;SDS011;60995;52.154;4.498;2023-07-28T11:09:59;10.27;;;3.35;;
72413;SDS011;60995;52.154;4.498;2023-07-28T11:12:18;8.40;;;3.50;;
72413;SDS011;60995;52.154;4.498;2023-07-28T11:14:34;9.15;;;3.67;;
72413;SDS011;60995;52.154;4.498;2023-07-28T11:16:51;10.27;;;3.53;;
72413;SDS011;60995;52.154;4.498;2023-07-28T11:19:08;10.07;;;3.47;;
72413;SDS011;60995;52.154;4.498;2023-07-28T11:21:26;10.90;;;3.38;;
72413;SDS011;60995;52.154;4.498;2023-07-28T11:23:46;9.38;;;3.30;;
72413;SDS011;60995;52.154;4.498;2023-07-28T11:26:02;11.55;;;3.45;;
72413;SDS011;60995;52.154;4.498;2023-07-28T11:28:21;8.77;;;3.00;;
72413;SDS011;60995;52.154;4.498;2023-07-28T11:30:37;8.20;;;3.28;;
72413;SDS011;60995;52.154;4.498;2023-07-28T11:32:54;9.88;;;3.42;;
72413;SDS011;60995;52.154;4.498;2023-07-28T11:35:11;10.10;;;3.03;;
72413;SDS011;60995;52.154;4.498;2023-07-28T11:37:30;11.80;;;3.53;;
72413;SDS011;60995;52.154;4.498;2023-07-28T11:39:48;8.85;;;3.25;;
72413;SDS011;60995;52.154;4.498;2023-07-28T11:42:05;8.35;;;3.15;;
72413;SDS011;60995;52.154;4.498;2023-07-28T11:44:22;9.07;;;3.10;;
72413;SDS011;60995;52.154;4.498;2023-07-28T11:46:41;12.10;;;3.30;;
72413;SDS011;60995;52.154;4.498;2023-07-28T11:49:17;8.30;;;3.10;;
72413;SDS011;60995;52.154;4.498;2023-07-28T11:51:38;7.43;;;2.85;;
72413;SDS011;60995;52.154;4.498;2023-07-28T11:54:01;8.05;;;2.97;;
72413;SDS011;60995;52.154;4.498;2023-07-28T11:56:17;10.10;;;2.97;;
72413;SDS011;60995;52.154;4.498;2023-07-28T11:58:36;9.75;;;3.08;;
72413;SDS011;60995;52.154;4.498;2023-07-28T12:00:52;8.90;;;3.40;;
72413;SDS011;60995;52.154;4.498;2023-07-28T12:03:09;7.55;;;3.08;;
72413;SDS011;60995;52.154;4.498;2023-07-28T12:05:28;8.23;;;2.65;;
72413;SDS011;60995;52.154;4.498;2023-07-28T12:07:47;8.88;;;2.55;;
72413;SDS011;60995;52.154;4.498;2023-07-28T12:10:05;8.57;;;2.42;;
72413;SDS011;60995;52.154;4.498;2023-07-28T12:12:25;8.02;;;3.03;;
72413;SDS011;60995;52.154;4.498;2023-07-28T12:14:44;9.38;;;2.97;;
72413;SDS011;60995;52.154;4.498;2023-07-28T12:17:11;8.30;;;3.00;;
72413;SDS011;60995;52.154;4.498;2023-07-28T12:19:33;8.35;;;3.05;;
72413;SDS011;60995;52.154;4.498;2023-07-28T12:22:13;8.00;;;2.83;;
72413;SDS011;60995;52.154;4.498;2023-07-28T12:24:29;9.55;;;3.10;;
72413;SDS011;60995;52.154;4.498;2023-07-28T12:26:46;7.95;;;2.78;;
72413;SDS011;60995;52.154;4.498;2023-07-28T12:29:03;8.35;;;3.05;;
72413;SDS011;60995;52.154;4.498;2023-07-28T12:31:19;9.45;;;3.10;;
72413;SDS011;60995;52.154;4.498;2023-07-28T12:33:36;7.60;;;2.80;;
72413;SDS011;60995;52.154;4.498;2023-07-28T12:35:52;10.07;;;3.05;;
72413;SDS011;60995;52.154;4.498;2023-07-28T12:38:08;8.75;;;2.97;;
72413;SDS011;60995;52.154;4.498;2023-07-28T12:40:24;9.48;;;3.20;;
72413;SDS011;60995;52.154;4.498;2023-07-28T12:42:42;9.70;;;3.20;;
72413;SDS011;60995;52.154;4.498;2023-07-28T12:44:58;11.13;;;3.72;;
72413;SDS011;60995;52.154;4.498;2023-07-28T12:47:15;7.95;;;3.33;;
72413;SDS011;60995;52.154;4.498;2023-07-28T12:49:31;11.35;;;3.22;;
72413;SDS011;60995;52.154;4.498;2023-07-28T12:51:50;8.90;;;3.03;;
72413;SDS011;60995;52.154;4.498;2023-07-28T12:54:06;8.57;;;3.08;;
72413;SDS011;60995;52.154;4.498;2023-07-28T12:56:22;11.70;;;3.92;;
72413;SDS011;60995;52.154;4.498;2023-07-28T12:58:39;11.52;;;3.58;;
72413;SDS011;60995;52.154;4.498;2023-07-28T13:00:55;12.38;;;3.92;;
72413;SDS011;60995;52.154;4.498;2023-07-28T13:03:13;11.52;;;3.70;;
72413;SDS011;60995;52.154;4.498;2023-07-28T13:05:30;10.82;;;3.40;;
72413;SDS011;60995;52.154;4.498;2023-07-28T13:07:46;8.07;;;2.95;;
72413;SDS011;60995;52.154;4.498;2023-07-28T13:10:02;7.38;;;3.28;;
72413;SDS011;60995;52.154;4.498;2023-07-28T13:12:20;9.88;;;3.25;;
72413;SDS011;60995;52.154;4.498;2023-07-28T13:14:36;9.75;;;2.95;;
72413;SDS011;60995;52.154;4.498;2023-07-28T13:16:52;10.73;;;3.03;;
72413;SDS011;60995;52.154;4.498;2023-07-28T13:19:08;8.05;;;2.83;;
72413;SDS011;60995;52.154;4.498;2023-07-28T13:21:25;7.72;;;2.58;;
72413;SDS011;60995;52.154;4.498;2023-07-28T13:23:41;8.65;;;2.50;;
72413;SDS011;60995;52.154;4.498;2023-07-28T13:25:58;7.63;;;2.90;;
72413;SDS011;60995;52.154;4.498;2023-07-28T13:28:14;6.45;;;2.75;;
72413;SDS011;60995;52.154;4.498;2023-07-28T13:30:30;7.05;;;2.78;;
72413;SDS011;60995;52.154;4.498;2023-07-28T13:32:46;6.75;;;3.00;;
72413;SDS011;60995;52.154;4.498;2023-07-28T13:35:03;7.32;;;2.38;;
72413;SDS011;60995;52.154;4.498;2023-07-28T13:37:20;5.68;;;2.40;;
72413;SDS011;60995;52.154;4.498;2023-07-28T13:39:36;5.60;;;2.40;;
72413;SDS011;60995;52.154;4.498;2023-07-28T13:41:53;5.10;;;2.38;;
72413;SDS011;60995;52.154;4.498;2023-07-28T13:44:09;8.68;;;2.75;;